createdAt,value
2019-03-23T00:01:49.652Z,101354.52
2019-03-23T00:04:17.319Z,101352.95
2019-03-23T00:06:44.968Z,101352.98
2019-03-23T00:09:12.711Z,101350.45
2019-03-23T00:11:40.358Z,101350.92
2019-03-23T00:14:08.031Z,101350.12
2019-03-23T00:16:35.815Z,101347.48
2019-03-23T00:19:04.029Z,101342.90
2019-03-23T00:21:31.720Z,101336.75
2019-03-23T00:23:59.415Z,101340.26
2019-03-23T00:26:27.076Z,101337.45
2019-03-23T00:28:54.775Z,101336.59
2019-03-23T00:31:22.435Z,101333.75
2019-03-23T00:33:50.097Z,101333.72
2019-03-23T00:36:17.771Z,101325.63
2019-03-23T00:38:45.435Z,101320.17
2019-03-23T00:41:13.091Z,101317.42
2019-03-23T00:43:40.750Z,101316.86
2019-03-23T00:46:09.245Z,101310.43
2019-03-23T00:48:38.316Z,101311.32
2019-03-23T00:51:06.030Z,101308.04
2019-03-23T00:53:33.687Z,101309.95
2019-03-23T00:56:01.431Z,101297.37
2019-03-23T00:58:29.087Z,101302.20
2019-03-23T01:00:56.736Z,101306.38
2019-03-23T01:03:24.398Z,101298.48
2019-03-23T01:05:52.055Z,101300.31
2019-03-23T01:08:19.722Z,101293.17
2019-03-23T01:10:47.891Z,101291.84
2019-03-23T01:13:15.559Z,101288.72
2019-03-23T01:15:43.219Z,101290.98
2019-03-23T01:18:10.895Z,101273.57
2019-03-23T01:20:49.093Z,101280.95
2019-03-23T01:23:07.959Z,101284.18
2019-03-23T01:25:35.615Z,101280.99
2019-03-23T01:28:03.276Z,101274.29
2019-03-23T01:30:30.936Z,101273.81
2019-03-23T01:32:58.595Z,101270.24
2019-03-23T01:35:26.321Z,101265.88
2019-03-23T01:37:53.978Z,101262.89
2019-03-23T01:40:21.646Z,101259.05
2019-03-23T01:42:49.340Z,101262.44
2019-03-23T01:45:17.057Z,101258.89
2019-03-23T01:47:44.746Z,101260.34
2019-03-23T01:50:12.410Z,101259.63
2019-03-23T01:52:40.066Z,101260.77
2019-03-23T01:55:07.741Z,101255.34
2019-03-23T01:57:35.398Z,101255.98
2019-03-23T02:00:03.119Z,101248.43
2019-03-23T02:02:30.770Z,101253.41
2019-03-23T02:04:58.435Z,101250.37
2019-03-23T02:07:26.088Z,101241.05
2019-03-23T02:09:53.747Z,101240.91
2019-03-23T02:12:21.403Z,101246.72
2019-03-23T02:14:49.145Z,101241.52
2019-03-23T02:17:16.962Z,101237.55
2019-03-23T02:19:44.750Z,101239.33
2019-03-23T02:22:12.396Z,101240.69
2019-03-23T02:24:40.058Z,101246.22
2019-03-23T02:27:07.707Z,101251.57
2019-03-23T02:29:35.397Z,101249.29
2019-03-23T02:32:03.236Z,101246.88
2019-03-23T02:34:31.083Z,101245.15
2019-03-23T02:36:58.852Z,101249.23
2019-03-23T02:39:26.510Z,101244.16
2019-03-23T02:41:54.164Z,101244.64
2019-03-23T02:44:21.819Z,101247.22
2019-03-23T02:46:49.475Z,101251.35
2019-03-23T02:49:17.180Z,101250.00
2019-03-23T02:51:44.924Z,101245.75
2019-03-23T02:54:12.779Z,101242.43
2019-03-23T02:56:40.435Z,101248.61
2019-03-23T02:59:08.092Z,101241.51
2019-03-23T03:01:35.805Z,101239.19
2019-03-23T03:04:03.524Z,101239.30
2019-03-23T03:06:31.248Z,101237.41
2019-03-23T03:08:58.968Z,101239.65
2019-03-23T03:11:26.960Z,101235.80
2019-03-23T03:13:54.652Z,101232.88
2019-03-23T03:16:22.332Z,101233.41
2019-03-23T03:18:49.983Z,101235.19
2019-03-23T03:21:17.653Z,101228.80
2019-03-23T03:23:45.522Z,101236.31
2019-03-23T03:26:13.249Z,101232.12
2019-03-23T03:28:41.205Z,101242.97
2019-03-23T03:31:08.923Z,101238.41
2019-03-23T03:33:36.586Z,101235.16
2019-03-23T03:36:04.334Z,101243.86
2019-03-23T03:38:32.002Z,101236.73
2019-03-23T03:41:00.040Z,101235.77
2019-03-23T03:43:28.080Z,101235.38
2019-03-23T03:45:55.758Z,101231.23
2019-03-23T03:48:23.421Z,101231.52
2019-03-23T03:50:51.083Z,101235.73
2019-03-23T03:53:18.740Z,101233.52
2019-03-23T03:55:46.505Z,101227.93
2019-03-23T03:58:14.163Z,101223.87
2019-03-23T04:00:41.828Z,101225.26
2019-03-23T04:03:09.520Z,101221.22
2019-03-23T04:05:37.546Z,101217.48
2019-03-23T04:08:11.528Z,101214.59
2019-03-23T04:10:34.619Z,101209.17
2019-03-23T04:13:02.355Z,101208.67
2019-03-23T04:15:30.208Z,101200.97
2019-03-23T04:17:57.957Z,101208.12
2019-03-23T04:20:25.670Z,101210.39
2019-03-23T04:22:53.322Z,101209.41
2019-03-23T04:25:21.034Z,101206.91
2019-03-23T04:27:48.757Z,101205.36
2019-03-23T04:30:16.562Z,101203.50
2019-03-23T04:32:44.260Z,101207.33
2019-03-23T04:35:11.911Z,101197.64
2019-03-23T04:37:39.581Z,101201.06
2019-03-23T04:40:07.237Z,101210.58
2019-03-23T04:42:35.224Z,101208.90
2019-03-23T04:45:02.881Z,101208.33
2019-03-23T04:47:30.581Z,101206.54
2019-03-23T04:49:58.398Z,101196.66
2019-03-23T04:52:26.057Z,101200.02
2019-03-23T04:54:53.732Z,101198.45
2019-03-23T04:57:21.391Z,101198.45
2019-03-23T04:59:49.138Z,101199.55
2019-03-23T05:02:16.798Z,101205.97
2019-03-23T05:04:44.469Z,101204.34
2019-03-23T05:07:12.127Z,101211.17
2019-03-23T05:09:39.788Z,101211.27
2019-03-23T05:12:07.447Z,101210.59
2019-03-23T05:14:35.107Z,101211.95
2019-03-23T05:17:02.856Z,101214.63
2019-03-23T05:19:30.511Z,101213.16
2019-03-23T05:21:58.236Z,101212.38
2019-03-23T05:24:25.943Z,101214.24
2019-03-23T05:26:53.643Z,101217.39
2019-03-23T05:29:21.375Z,101213.23
2019-03-23T05:31:49.054Z,101205.84
2019-03-23T05:34:16.708Z,101216.31
2019-03-23T05:36:44.574Z,101204.62
2019-03-23T05:39:12.244Z,101214.53
2019-03-23T05:41:39.912Z,101212.33
2019-03-23T05:44:07.571Z,101208.27
2019-03-23T05:46:35.234Z,101211.31
2019-03-23T05:49:02.907Z,101218.67
2019-03-23T05:51:30.590Z,101219.09
2019-03-23T05:53:58.454Z,101225.13
2019-03-23T05:56:26.111Z,101225.94
2019-03-23T05:58:53.771Z,101225.45
2019-03-23T06:01:21.516Z,101230.59
2019-03-23T06:03:49.235Z,101227.44
2019-03-23T06:06:16.955Z,101225.56
2019-03-23T06:08:54.219Z,101230.61
2019-03-23T06:11:13.989Z,101226.66
2019-03-23T06:13:41.727Z,101229.72
2019-03-23T06:16:09.423Z,101228.97
2019-03-23T06:18:37.109Z,101222.97
2019-03-23T06:21:08.888Z,101218.81
2019-03-23T06:23:36.576Z,101223.39
2019-03-23T06:26:06.458Z,101221.45
2019-03-23T06:28:33.810Z,101223.87
2019-03-23T06:31:01.458Z,101218.53
2019-03-23T06:33:29.203Z,101226.08
2019-03-23T06:35:56.888Z,101222.33
2019-03-23T06:38:24.995Z,101219.58
2019-03-23T06:40:52.654Z,101218.27
2019-03-23T06:43:20.307Z,101215.95
2019-03-23T06:45:47.968Z,101218.70
2019-03-23T06:48:15.683Z,101217.36
2019-03-23T06:50:43.469Z,101218.91
2019-03-23T06:53:11.138Z,101218.32
2019-03-23T06:55:38.791Z,101217.48
2019-03-23T06:58:06.467Z,101217.16
2019-03-23T07:00:34.129Z,101210.80
2019-03-23T07:03:01.793Z,101213.19
2019-03-23T07:05:29.443Z,101205.06
2019-03-23T07:07:57.106Z,101208.62
2019-03-23T07:10:24.751Z,101205.88
2019-03-23T07:12:52.410Z,101205.63
2019-03-23T07:15:20.652Z,101206.42
2019-03-23T07:17:48.550Z,101205.42
2019-03-23T07:20:16.315Z,101203.66
2019-03-23T07:22:44.048Z,101203.66
2019-03-23T07:25:11.715Z,101204.81
2019-03-23T07:27:39.380Z,101209.00
2019-03-23T07:30:07.043Z,101203.30
2019-03-23T07:32:34.712Z,101205.56
2019-03-23T07:35:02.381Z,101205.56
2019-03-23T07:37:30.087Z,101193.95
2019-03-23T07:39:57.740Z,101189.45
2019-03-23T07:42:25.395Z,101192.41
2019-03-23T07:44:53.062Z,101192.13
2019-03-23T07:47:20.719Z,101189.67
2019-03-23T07:49:48.387Z,101194.62
2019-03-23T07:52:16.075Z,101192.91
2019-03-23T07:54:43.832Z,101197.09
2019-03-23T07:57:11.596Z,101191.80
2019-03-23T07:59:39.257Z,101199.55
2019-03-23T08:02:06.988Z,101195.77
2019-03-23T08:04:34.659Z,101190.98
2019-03-23T08:07:02.315Z,101190.77
2019-03-23T08:09:37.550Z,101197.98
2019-03-23T08:11:59.344Z,101189.05
2019-03-23T08:14:27.018Z,101196.05
2019-03-23T08:16:54.823Z,101192.23
2019-03-23T08:19:22.614Z,101192.16
2019-03-23T08:21:50.463Z,101190.36
2019-03-23T08:24:18.131Z,101188.33
2019-03-23T08:26:45.800Z,101191.97
2019-03-23T08:29:13.474Z,101190.59
2019-03-23T08:31:41.215Z,101189.44
2019-03-23T08:34:08.890Z,101192.55
2019-03-23T08:36:36.544Z,101186.41
2019-03-23T08:39:04.687Z,101177.41
2019-03-23T08:41:32.343Z,101177.41
2019-03-23T08:44:00.013Z,101178.08
2019-03-23T08:46:27.728Z,101176.73
2019-03-23T08:48:55.443Z,101172.39
2019-03-23T08:51:23.159Z,101172.44
2019-03-23T08:53:51.558Z,101172.77
2019-03-23T08:56:19.270Z,101170.64
2019-03-23T08:58:47.005Z,101162.72
2019-03-23T09:01:14.686Z,101162.08
2019-03-23T09:03:52.052Z,101166.21
2019-03-23T09:06:12.271Z,101166.72
2019-03-23T09:08:39.933Z,101159.30
2019-03-23T09:11:07.721Z,101162.02
2019-03-23T09:13:40.618Z,101151.38
2019-03-23T09:16:04.824Z,101155.55
2019-03-23T09:18:32.484Z,101145.97
2019-03-23T09:21:00.159Z,101146.96
2019-03-23T09:23:28.010Z,101142.63
2019-03-23T09:25:55.800Z,101137.58
2019-03-23T09:28:23.546Z,101143.35
2019-03-23T09:30:51.294Z,101143.35
2019-03-23T09:33:18.951Z,101144.50
2019-03-23T09:35:46.610Z,101144.30
2019-03-23T09:38:14.271Z,101144.73
2019-03-23T09:40:42.045Z,101141.83
2019-03-23T09:43:10.272Z,101143.21
2019-03-23T09:45:37.926Z,101132.81
2019-03-23T09:48:05.587Z,101127.77
2019-03-23T09:50:33.242Z,101129.92
2019-03-23T09:53:00.940Z,101135.98
2019-03-23T09:55:28.859Z,101134.36
2019-03-23T09:57:56.651Z,101135.42
2019-03-23T10:00:24.333Z,101129.92
2019-03-23T10:02:51.982Z,101132.31
2019-03-23T10:05:19.635Z,101128.07
2019-03-23T10:07:47.279Z,101125.23
2019-03-23T10:10:21.761Z,101119.53
2019-03-23T10:12:44.366Z,101119.42
2019-03-23T10:15:12.034Z,101122.66
2019-03-23T10:17:39.674Z,101113.91
2019-03-23T10:20:07.351Z,101119.28
2019-03-23T10:22:35.002Z,101114.42
2019-03-23T10:25:02.667Z,101121.41
2019-03-23T10:27:30.359Z,101120.41
2019-03-23T10:29:58.095Z,101120.30
2019-03-23T10:32:25.742Z,101115.57
2019-03-23T10:34:53.388Z,101108.31
2019-03-23T10:37:21.085Z,101110.42
2019-03-23T10:39:48.722Z,101111.33
2019-03-23T10:42:16.948Z,101109.98
2019-03-23T10:44:44.670Z,101112.19
2019-03-23T10:47:12.316Z,101106.50
2019-03-23T10:49:39.965Z,101106.50
2019-03-23T10:52:07.610Z,101103.03
2019-03-23T10:54:35.287Z,101108.32
2019-03-23T10:57:03.014Z,101104.58
2019-03-23T10:59:30.667Z,101107.93
2019-03-23T11:01:58.480Z,101115.33
2019-03-23T11:04:26.128Z,101110.50
2019-03-23T11:06:53.794Z,101113.58
2019-03-23T11:09:21.442Z,101108.30
2019-03-23T11:11:49.129Z,101105.64
2019-03-23T11:14:16.844Z,101100.36
2019-03-23T11:16:44.748Z,101102.20
2019-03-23T11:19:13.508Z,101098.73
2019-03-23T11:21:41.470Z,101100.40
2019-03-23T11:24:09.117Z,101090.36
2019-03-23T11:26:36.785Z,101093.83
2019-03-23T11:29:04.455Z,101087.77
2019-03-23T11:31:32.127Z,101089.97
2019-03-23T11:33:59.787Z,101089.08
2019-03-23T11:36:27.492Z,101089.55
2019-03-23T11:38:55.162Z,101089.08
2019-03-23T11:41:22.848Z,101096.04
2019-03-23T11:43:50.568Z,101087.78
2019-03-23T11:46:18.240Z,101085.16
2019-03-23T11:48:45.897Z,101088.13
2019-03-23T11:51:13.550Z,101077.22
2019-03-23T11:53:41.211Z,101082.95
2019-03-23T11:56:08.878Z,101086.52
2019-03-23T11:58:36.647Z,101079.47
2019-03-23T12:01:04.296Z,101084.27
2019-03-23T12:03:31.951Z,101081.17
2019-03-23T12:05:59.600Z,101082.03
2019-03-23T12:08:27.267Z,101079.47
2019-03-23T12:11:02.552Z,101079.82
2019-03-23T12:13:24.275Z,101077.64
2019-03-23T12:15:51.936Z,101071.08
2019-03-23T12:18:19.602Z,101070.68
2019-03-23T12:20:47.256Z,101071.55
2019-03-23T12:23:14.913Z,101073.72
2019-03-23T12:25:42.567Z,101076.80
2019-03-23T12:28:10.219Z,101067.58
2019-03-23T12:30:37.897Z,101078.06
2019-03-23T12:33:05.555Z,101068.43
2019-03-23T12:35:33.206Z,101068.05
2019-03-23T12:38:00.863Z,101071.14
2019-03-23T12:40:28.534Z,101067.17
2019-03-23T12:42:56.236Z,101066.76
2019-03-23T12:45:23.936Z,101070.20
2019-03-23T12:47:51.767Z,101062.75
2019-03-23T12:50:19.433Z,101067.58
2019-03-23T12:52:47.075Z,101068.45
2019-03-23T12:55:14.737Z,101063.66
2019-03-23T12:57:42.395Z,101066.27
2019-03-23T13:00:10.119Z,101066.27
2019-03-23T13:02:37.800Z,101062.96
2019-03-23T13:05:05.439Z,101067.05
2019-03-23T13:07:33.086Z,101058.78
2019-03-23T13:10:00.765Z,101044.28
2019-03-23T13:12:28.503Z,101044.28
2019-03-23T13:14:56.150Z,101050.91
2019-03-23T13:17:23.996Z,101046.05
2019-03-23T13:19:51.653Z,101045.53
2019-03-23T13:22:19.340Z,101046.87
2019-03-23T13:24:47.012Z,101042.97
2019-03-23T13:27:14.675Z,101040.83
2019-03-23T13:29:42.344Z,101042.90
2019-03-23T13:32:09.990Z,101036.33
2019-03-23T13:34:37.655Z,101039.89
2019-03-23T13:37:05.339Z,101029.77
2019-03-23T13:39:32.995Z,101029.35
2019-03-23T13:42:00.701Z,101023.14
2019-03-23T13:44:28.368Z,101033.66
2019-03-23T13:46:56.023Z,101040.68
2019-03-23T13:49:23.670Z,101029.25
2019-03-23T13:51:51.361Z,101037.23
2019-03-23T13:54:19.010Z,101033.70
2019-03-23T13:56:46.663Z,101037.64
2019-03-23T13:59:14.343Z,101037.95
2019-03-23T14:01:42.015Z,101030.07
2019-03-23T14:04:09.659Z,101031.92
2019-03-23T14:06:37.315Z,101034.50
2019-03-23T14:09:05.325Z,101035.54
2019-03-23T14:11:32.996Z,101025.41
2019-03-23T14:14:00.645Z,101031.51
2019-03-23T14:16:28.315Z,101033.27
2019-03-23T14:18:56.357Z,101029.22
2019-03-23T14:21:24.122Z,101036.64
2019-03-23T14:23:51.773Z,101026.55
2019-03-23T14:26:19.439Z,101025.56
2019-03-23T14:28:47.124Z,101028.28
2019-03-23T14:31:14.822Z,101026.14
2019-03-23T14:33:42.534Z,101026.14
2019-03-23T14:36:10.190Z,101027.86
2019-03-23T14:38:37.837Z,101028.27
2019-03-23T14:41:05.495Z,101024.83
2019-03-23T14:43:33.143Z,101026.52
2019-03-23T14:46:00.806Z,101025.22
2019-03-23T14:48:28.454Z,101027.78
2019-03-23T14:50:56.226Z,101028.58
2019-03-23T14:53:23.882Z,101027.80
2019-03-23T14:55:51.544Z,101026.94
2019-03-23T14:58:19.211Z,101026.45
2019-03-23T15:00:47.094Z,101027.25
2019-03-23T15:03:14.867Z,101024.61
2019-03-23T15:05:42.607Z,101027.71
2019-03-23T15:08:10.371Z,101024.23
2019-03-23T15:10:38.058Z,101028.59
2019-03-23T15:13:05.809Z,101031.27
2019-03-23T15:15:33.586Z,101026.88
2019-03-23T15:18:01.240Z,101035.61
2019-03-23T15:20:28.898Z,101026.80
2019-03-23T15:22:56.541Z,101038.52
2019-03-23T15:25:24.194Z,101034.03
2019-03-23T15:27:51.847Z,101038.47
2019-03-23T15:30:19.554Z,101034.50
2019-03-23T15:32:47.268Z,101028.72
2019-03-23T15:35:14.923Z,101032.22
2019-03-23T15:37:42.583Z,101036.94
2019-03-23T15:40:10.233Z,101040.84
2019-03-23T15:42:37.885Z,101030.26
2019-03-23T15:45:05.542Z,101035.52
2019-03-23T15:47:33.259Z,101031.61
2019-03-23T15:50:01.007Z,101032.88
2019-03-23T15:52:28.663Z,101045.53
2019-03-23T15:54:56.313Z,101037.66
2019-03-23T15:57:23.993Z,101038.02
2019-03-23T15:59:51.634Z,101048.09
2019-03-23T16:02:19.346Z,101046.71
2019-03-23T16:04:47.025Z,101043.19
2019-03-23T16:07:14.711Z,101042.66
2019-03-23T16:09:42.414Z,101046.23
2019-03-23T16:12:10.072Z,101042.20
2019-03-23T16:14:37.730Z,101043.95
2019-03-23T16:17:05.387Z,101041.67
2019-03-23T16:19:33.067Z,101044.64
2019-03-23T16:22:00.779Z,101045.05
2019-03-23T16:24:28.467Z,101056.00
2019-03-23T16:26:56.134Z,101047.10
2019-03-23T16:29:23.807Z,101044.43
2019-03-23T16:31:51.539Z,101043.55
2019-03-23T16:34:19.260Z,101056.55
2019-03-23T16:36:46.902Z,101056.77
2019-03-23T16:39:14.566Z,101060.17
2019-03-23T16:41:42.251Z,101061.09
2019-03-23T16:44:09.929Z,101064.33
2019-03-23T16:46:37.612Z,101060.53
2019-03-23T16:49:05.278Z,101053.41
2019-03-23T16:51:33.003Z,101053.41
2019-03-23T16:54:00.671Z,101065.68
2019-03-23T16:56:28.319Z,101061.11
2019-03-23T16:58:56.036Z,101072.91
2019-03-23T17:01:23.810Z,101070.27
2019-03-23T17:03:51.488Z,101081.26
2019-03-23T17:06:19.361Z,101079.06
2019-03-23T17:08:47.087Z,101077.27
2019-03-23T17:11:14.744Z,101088.75
2019-03-23T17:13:42.404Z,101089.13
2019-03-23T17:16:10.063Z,101093.91
2019-03-23T17:18:37.734Z,101096.50
2019-03-23T17:21:05.431Z,101108.66
2019-03-23T17:23:33.098Z,101106.47
2019-03-23T17:26:00.755Z,101115.59
2019-03-23T17:28:28.425Z,101122.52
2019-03-23T17:30:56.186Z,101126.34
2019-03-23T17:33:23.859Z,101129.63
2019-03-23T17:35:51.516Z,101134.75
2019-03-23T17:38:19.233Z,101141.89
2019-03-23T17:40:46.870Z,101152.68
2019-03-23T17:43:14.826Z,101158.14
2019-03-23T17:45:42.497Z,101161.59
2019-03-23T17:48:10.239Z,101169.89
2019-03-23T17:50:37.917Z,101174.95
2019-03-23T17:53:05.568Z,101186.66
2019-03-23T17:55:33.236Z,101191.52
2019-03-23T17:58:00.969Z,101197.07
2019-03-23T18:00:29.411Z,101197.07
2019-03-23T18:02:57.224Z,101197.70
2019-03-23T18:05:24.970Z,101222.57
2019-03-23T18:07:52.639Z,101214.74
2019-03-23T18:10:20.343Z,101226.59
2019-03-23T18:12:48.124Z,101234.58
2019-03-23T18:15:15.796Z,101234.58
2019-03-23T18:17:43.452Z,101233.77
2019-03-23T18:20:11.118Z,101245.92
2019-03-23T18:22:38.782Z,101248.81
2019-03-23T18:25:06.449Z,101251.29
2019-03-23T18:27:39.482Z,101251.29
2019-03-23T18:30:07.146Z,101259.70
2019-03-23T18:32:34.803Z,101271.08
2019-03-23T18:35:03.284Z,101281.32
2019-03-23T18:37:31.168Z,101281.88
2019-03-23T18:39:58.855Z,101287.41
2019-03-23T18:42:26.515Z,101286.61
2019-03-23T18:44:54.179Z,101300.69
2019-03-23T18:47:21.842Z,101300.69
2019-03-23T18:49:49.511Z,101314.00
2019-03-23T18:52:17.323Z,101312.71
2019-03-23T18:54:45.103Z,101319.91
2019-03-23T18:57:12.799Z,101322.95
2019-03-23T18:59:40.456Z,101320.36
2019-03-23T19:02:08.112Z,101327.52
2019-03-23T19:04:35.775Z,101328.81
2019-03-23T19:07:03.568Z,101333.56
2019-03-23T19:09:31.322Z,101340.30
2019-03-23T19:11:58.999Z,101343.00
2019-03-23T19:14:26.683Z,101344.63
2019-03-23T19:16:54.360Z,101351.59
2019-03-23T19:19:22.027Z,101355.19
2019-03-23T19:21:49.683Z,101360.02
2019-03-23T19:24:17.364Z,101365.47
2019-03-23T19:26:45.103Z,101371.97
2019-03-23T19:29:12.802Z,101377.37
2019-03-23T19:31:40.755Z,101375.35
2019-03-23T19:34:08.451Z,101377.46
2019-03-23T19:36:36.107Z,101387.62
2019-03-23T19:39:04.823Z,101395.91
2019-03-23T19:41:32.501Z,101395.91
2019-03-23T19:44:00.251Z,101409.37
2019-03-23T19:46:27.916Z,101412.78
2019-03-23T19:48:55.573Z,101412.78
2019-03-23T19:51:23.235Z,101412.80
2019-03-23T19:53:50.902Z,101424.03
2019-03-23T19:56:18.588Z,101429.70
2019-03-23T19:58:46.246Z,101425.46
2019-03-23T20:01:13.914Z,101428.41
2019-03-23T20:03:41.577Z,101436.24
2019-03-23T20:06:09.241Z,101425.67
2019-03-23T20:08:36.898Z,101425.67
2019-03-23T20:11:04.612Z,101432.08
2019-03-23T20:13:32.268Z,101442.89
2019-03-23T20:15:59.963Z,101440.59
2019-03-23T20:18:27.618Z,101440.11
2019-03-23T20:20:55.279Z,101439.92
2019-03-23T20:23:22.964Z,101439.88
2019-03-23T20:25:50.692Z,101449.45
2019-03-23T20:28:18.770Z,101437.04
2019-03-23T20:30:46.650Z,101447.14
2019-03-23T20:33:19.385Z,101441.60
2019-03-23T20:35:43.752Z,101439.94
2019-03-23T20:38:11.482Z,101440.89
2019-03-23T20:40:39.175Z,101436.70
2019-03-23T20:43:06.835Z,101439.88
2019-03-23T20:45:34.512Z,101438.98
2019-03-23T20:48:02.167Z,101434.47
2019-03-23T20:50:29.837Z,101432.92
2019-03-23T20:52:57.508Z,101437.55
2019-03-23T20:55:25.246Z,101435.09
2019-03-23T20:57:53.006Z,101441.83
2019-03-23T21:00:20.751Z,101443.66
2019-03-23T21:02:48.424Z,101448.52
2019-03-23T21:05:16.089Z,101444.91
2019-03-23T21:07:43.813Z,101441.69
2019-03-23T21:10:11.519Z,101434.97
2019-03-23T21:12:39.194Z,101435.78
2019-03-23T21:15:06.864Z,101442.23
2019-03-23T21:17:34.525Z,101440.45
2019-03-23T21:20:02.263Z,101436.73
2019-03-23T21:22:29.973Z,101437.37
2019-03-23T21:24:57.764Z,101437.88
2019-03-23T21:27:25.513Z,101439.56
2019-03-23T21:29:53.210Z,101431.83
2019-03-23T21:32:21.244Z,101432.72
2019-03-23T21:34:48.903Z,101423.78
2019-03-23T21:37:16.563Z,101421.59
2019-03-23T21:39:44.286Z,101417.55
2019-03-23T21:42:11.940Z,101419.95
2019-03-23T21:44:39.609Z,101427.03
2019-03-23T21:47:07.279Z,101417.98
2019-03-23T21:49:34.938Z,101417.95
2019-03-23T21:52:02.600Z,101416.00
2019-03-23T21:54:30.264Z,101421.38
2019-03-23T21:56:58.005Z,101422.81
2019-03-23T21:59:25.877Z,101419.04
2019-03-23T22:01:53.531Z,101418.86
2019-03-23T22:04:21.191Z,101422.08
2019-03-23T22:06:48.866Z,101417.33
2019-03-23T22:09:16.531Z,101413.21
2019-03-23T22:11:44.231Z,101416.67
2019-03-23T22:14:11.915Z,101416.45
2019-03-23T22:16:39.666Z,101420.77
2019-03-23T22:19:07.327Z,101422.83
2019-03-23T22:21:35.000Z,101426.22
2019-03-23T22:24:02.668Z,101420.53
2019-03-23T22:26:30.332Z,101421.42
2019-03-23T22:28:58.024Z,101424.05
2019-03-23T22:31:25.682Z,101417.20
2019-03-23T22:33:53.340Z,101418.42
2019-03-23T22:36:20.992Z,101406.89
2019-03-23T22:38:48.663Z,101413.36
2019-03-23T22:41:16.327Z,101411.12
2019-03-23T22:43:44.006Z,101414.14
2019-03-23T22:46:11.719Z,101414.81
2019-03-23T22:48:39.401Z,101413.45
2019-03-23T22:51:07.091Z,101410.54
2019-03-23T22:53:34.755Z,101412.17
2019-03-23T22:56:02.645Z,101403.05
2019-03-23T22:58:30.355Z,101405.23
2019-03-23T23:00:58.042Z,101406.92
2019-03-23T23:03:25.918Z,101410.64
2019-03-23T23:05:53.937Z,101403.29
2019-03-23T23:08:21.707Z,101403.84
2019-03-23T23:10:49.363Z,101412.57
2019-03-23T23:13:17.026Z,101409.48
2019-03-23T23:15:44.745Z,101402.55
2019-03-23T23:18:12.416Z,101403.54
2019-03-23T23:20:40.071Z,101401.50
2019-03-23T23:23:07.815Z,101400.54
2019-03-23T23:25:35.742Z,101401.59
2019-03-23T23:28:03.442Z,101408.58
2019-03-23T23:30:31.103Z,101404.00
2019-03-23T23:32:58.770Z,101404.88
2019-03-23T23:35:26.482Z,101401.67
2019-03-23T23:37:54.144Z,101401.73
2019-03-23T23:40:21.803Z,101401.11
2019-03-23T23:42:49.710Z,101404.33
2019-03-23T23:45:17.421Z,101398.76
2019-03-23T23:47:45.158Z,101392.06
2019-03-23T23:50:12.829Z,101393.77
2019-03-23T23:52:40.480Z,101393.21
2019-03-23T23:55:08.147Z,101396.73
2019-03-23T23:57:35.807Z,101394.16
